sensor_id;sensor_type;location;lat;lon;timestamp;P1;durP1;ratioP1;P2;durP2;ratioP2
13197;SDS011;6664;52.514;13.440;2023-03-14T00:01:56;2.10;;;0.97;;
13197;SDS011;6664;52.514;13.440;2023-03-14T00:04:41;0.83;;;0.83;;
13197;SDS011;6664;52.514;13.440;2023-03-14T00:07:27;1.10;;;1.00;;
13197;SDS011;6664;52.514;13.440;2023-03-14T00:10:16;2.60;;;0.90;;
13197;SDS011;6664;52.514;13.440;2023-03-14T00:13:02;1.20;;;1.20;;
13197;SDS011;6664;52.514;13.440;2023-03-14T00:15:48;1.00;;;0.90;;
13197;SDS011;6664;52.514;13.440;2023-03-14T00:18:35;1.00;;;0.90;;
13197;SDS011;6664;52.514;13.440;2023-03-14T00:21:21;1.17;;;1.00;;
13197;SDS011;6664;52.514;13.440;2023-03-14T00:24:07;2.10;;;0.73;;
13197;SDS011;6664;52.514;13.440;2023-03-14T00:26:53;1.73;;;1.00;;
13197;SDS011;6664;52.514;13.440;2023-03-14T00:29:41;4.37;;;0.80;;
13197;SDS011;6664;52.514;13.440;2023-03-14T00:32:27;1.27;;;1.10;;
13197;SDS011;6664;52.514;13.440;2023-03-14T00:35:13;3.13;;;1.10;;
13197;SDS011;6664;52.514;13.440;2023-03-14T00:38:00;2.20;;;1.07;;
13197;SDS011;6664;52.514;13.440;2023-03-14T00:40:45;2.40;;;0.83;;
13197;SDS011;6664;52.514;13.440;2023-03-14T00:43:36;1.30;;;1.00;;
13197;SDS011;6664;52.514;13.440;2023-03-14T00:46:21;0.70;;;0.70;;
13197;SDS011;6664;52.514;13.440;2023-03-14T00:49:08;2.80;;;1.10;;
13197;SDS011;6664;52.514;13.440;2023-03-14T00:51:53;1.00;;;1.00;;
13197;SDS011;6664;52.514;13.440;2023-03-14T00:54:39;1.30;;;1.07;;
13197;SDS011;6664;52.514;13.440;2023-03-14T00:57:24;0.73;;;0.73;;
13197;SDS011;6664;52.514;13.440;2023-03-14T01:00:10;1.33;;;1.23;;
13197;SDS011;6664;52.514;13.440;2023-03-14T01:02:57;1.50;;;0.83;;
13197;SDS011;6664;52.514;13.440;2023-03-14T01:05:45;1.03;;;0.90;;
13197;SDS011;6664;52.514;13.440;2023-03-14T01:08:31;1.30;;;1.10;;
13197;SDS011;6664;52.514;13.440;2023-03-14T01:11:29;0.70;;;0.70;;
13197;SDS011;6664;52.514;13.440;2023-03-14T01:14:19;0.90;;;0.90;;
13197;SDS011;6664;52.514;13.440;2023-03-14T01:17:04;0.73;;;0.73;;
13197;SDS011;6664;52.514;13.440;2023-03-14T01:19:50;1.20;;;1.10;;
13197;SDS011;6664;52.514;13.440;2023-03-14T01:22:36;0.80;;;0.80;;
13197;SDS011;6664;52.514;13.440;2023-03-14T01:25:24;1.40;;;1.20;;
13197;SDS011;6664;52.514;13.440;2023-03-14T01:28:12;0.90;;;0.90;;
13197;SDS011;6664;52.514;13.440;2023-03-14T01:31:01;0.83;;;0.83;;
13197;SDS011;6664;52.514;13.440;2023-03-14T01:33:48;1.23;;;1.13;;
13197;SDS011;6664;52.514;13.440;2023-03-14T01:36:34;0.83;;;0.77;;
13197;SDS011;6664;52.514;13.440;2023-03-14T01:39:22;0.80;;;0.80;;
13197;SDS011;6664;52.514;13.440;2023-03-14T01:42:07;0.77;;;0.77;;
13197;SDS011;6664;52.514;13.440;2023-03-14T01:44:54;3.23;;;1.47;;
13197;SDS011;6664;52.514;13.440;2023-03-14T01:47:41;1.33;;;1.03;;
13197;SDS011;6664;52.514;13.440;2023-03-14T01:50:27;0.70;;;0.70;;
13197;SDS011;6664;52.514;13.440;2023-03-14T01:53:12;2.27;;;1.00;;
13197;SDS011;6664;52.514;13.440;2023-03-14T01:55:58;1.10;;;1.10;;
13197;SDS011;6664;52.514;13.440;2023-03-14T01:58:45;1.17;;;0.93;;
13197;SDS011;6664;52.514;13.440;2023-03-14T02:01:36;0.80;;;0.80;;
13197;SDS011;6664;52.514;13.440;2023-03-14T02:04:26;1.00;;;0.80;;
13197;SDS011;6664;52.514;13.440;2023-03-14T02:07:20;0.70;;;0.70;;
13197;SDS011;6664;52.514;13.440;2023-03-14T02:10:11;1.33;;;0.70;;
13197;SDS011;6664;52.514;13.440;2023-03-14T02:12:59;0.60;;;0.60;;
13197;SDS011;6664;52.514;13.440;2023-03-14T02:15:47;0.67;;;0.67;;
13197;SDS011;6664;52.514;13.440;2023-03-14T02:18:33;0.60;;;0.60;;
13197;SDS011;6664;52.514;13.440;2023-03-14T02:24:14;0.90;;;0.90;;
13197;SDS011;6664;52.514;13.440;2023-03-14T02:27:17;0.83;;;0.83;;
13197;SDS011;6664;52.514;13.440;2023-03-14T02:30:06;0.80;;;0.80;;
13197;SDS011;6664;52.514;13.440;2023-03-14T02:32:56;1.00;;;1.00;;
13197;SDS011;6664;52.514;13.440;2023-03-14T02:36:19;0.90;;;0.90;;
13197;SDS011;6664;52.514;13.440;2023-03-14T02:39:11;1.57;;;0.90;;
13197;SDS011;6664;52.514;13.440;2023-03-14T02:42:04;0.90;;;0.90;;
13197;SDS011;6664;52.514;13.440;2023-03-14T02:44:54;1.30;;;0.90;;
13197;SDS011;6664;52.514;13.440;2023-03-14T02:47:54;0.70;;;0.70;;
13197;SDS011;6664;52.514;13.440;2023-03-14T02:50:47;2.00;;;0.80;;
13197;SDS011;6664;52.514;13.440;2023-03-14T02:53:37;1.43;;;0.90;;
13197;SDS011;6664;52.514;13.440;2023-03-14T02:56:23;1.43;;;0.90;;
13197;SDS011;6664;52.514;13.440;2023-03-14T02:59:11;0.87;;;0.83;;
13197;SDS011;6664;52.514;13.440;2023-03-14T03:01:59;0.80;;;0.80;;
13197;SDS011;6664;52.514;13.440;2023-03-14T03:04:45;0.67;;;0.67;;
13197;SDS011;6664;52.514;13.440;2023-03-14T03:07:30;1.70;;;0.80;;
13197;SDS011;6664;52.514;13.440;2023-03-14T03:10:16;0.60;;;0.60;;
13197;SDS011;6664;52.514;13.440;2023-03-14T03:13:02;4.30;;;0.87;;
13197;SDS011;6664;52.514;13.440;2023-03-14T03:15:48;1.00;;;0.90;;
13197;SDS011;6664;52.514;13.440;2023-03-14T03:18:33;0.77;;;0.77;;
13197;SDS011;6664;52.514;13.440;2023-03-14T03:21:18;1.53;;;0.70;;
13197;SDS011;6664;52.514;13.440;2023-03-14T03:24:08;0.80;;;0.80;;
13197;SDS011;6664;52.514;13.440;2023-03-14T03:26:55;0.77;;;0.77;;
13197;SDS011;6664;52.514;13.440;2023-03-14T03:29:42;1.80;;;0.70;;
13197;SDS011;6664;52.514;13.440;2023-03-14T03:32:28;0.60;;;0.60;;
13197;SDS011;6664;52.514;13.440;2023-03-14T03:35:16;1.00;;;0.90;;
13197;SDS011;6664;52.514;13.440;2023-03-14T03:38:06;0.80;;;0.80;;
13197;SDS011;6664;52.514;13.440;2023-03-14T03:40:52;1.50;;;0.70;;
13197;SDS011;6664;52.514;13.440;2023-03-14T03:43:37;0.80;;;0.67;;
13197;SDS011;6664;52.514;13.440;2023-03-14T03:46:25;1.10;;;0.80;;
13197;SDS011;6664;52.514;13.440;2023-03-14T03:49:11;0.70;;;0.70;;
13197;SDS011;6664;52.514;13.440;2023-03-14T03:51:57;1.13;;;0.70;;
13197;SDS011;6664;52.514;13.440;2023-03-14T03:54:45;1.30;;;0.90;;
13197;SDS011;6664;52.514;13.440;2023-03-14T03:57:30;2.97;;;0.90;;
13197;SDS011;6664;52.514;13.440;2023-03-14T04:00:18;0.70;;;0.70;;
13197;SDS011;6664;52.514;13.440;2023-03-14T04:03:04;1.50;;;0.90;;
13197;SDS011;6664;52.514;13.440;2023-03-14T04:06:04;0.80;;;0.80;;
13197;SDS011;6664;52.514;13.440;2023-03-14T04:08:54;0.90;;;0.80;;
13197;SDS011;6664;52.514;13.440;2023-03-14T04:11:40;1.90;;;0.80;;
13197;SDS011;6664;52.514;13.440;2023-03-14T04:14:26;0.70;;;0.70;;
13197;SDS011;6664;52.514;13.440;2023-03-14T04:17:11;0.80;;;0.70;;
13197;SDS011;6664;52.514;13.440;2023-03-14T04:19:57;2.20;;;1.00;;
13197;SDS011;6664;52.514;13.440;2023-03-14T04:22:42;2.27;;;0.70;;
13197;SDS011;6664;52.514;13.440;2023-03-14T04:25:28;0.60;;;0.60;;
13197;SDS011;6664;52.514;13.440;2023-03-14T04:28:16;0.80;;;0.80;;
13197;SDS011;6664;52.514;13.440;2023-03-14T04:31:11;1.07;;;0.90;;
13197;SDS011;6664;52.514;13.440;2023-03-14T04:34:02;0.73;;;0.73;;
13197;SDS011;6664;52.514;13.440;2023-03-14T04:36:51;0.87;;;0.70;;
13197;SDS011;6664;52.514;13.440;2023-03-14T04:39:37;4.93;;;1.00;;
13197;SDS011;6664;52.514;13.440;2023-03-14T04:42:25;0.77;;;0.67;;
13197;SDS011;6664;52.514;13.440;2023-03-14T04:45:12;1.53;;;0.67;;
13197;SDS011;6664;52.514;13.440;2023-03-14T04:48:00;0.90;;;0.90;;
13197;SDS011;6664;52.514;13.440;2023-03-14T04:50:46;0.70;;;0.70;;
13197;SDS011;6664;52.514;13.440;2023-03-14T04:53:32;0.77;;;0.73;;
13197;SDS011;6664;52.514;13.440;2023-03-14T04:56:21;2.40;;;0.70;;
13197;SDS011;6664;52.514;13.440;2023-03-14T04:59:07;1.40;;;0.70;;
13197;SDS011;6664;52.514;13.440;2023-03-14T05:01:53;0.73;;;0.73;;
13197;SDS011;6664;52.514;13.440;2023-03-14T05:04:39;0.73;;;0.70;;
13197;SDS011;6664;52.514;13.440;2023-03-14T05:07:25;5.80;;;1.00;;
13197;SDS011;6664;52.514;13.440;2023-03-14T05:10:12;1.00;;;0.90;;
13197;SDS011;6664;52.514;13.440;2023-03-14T05:12:58;0.90;;;0.87;;
13197;SDS011;6664;52.514;13.440;2023-03-14T05:15:45;2.17;;;0.70;;
13197;SDS011;6664;52.514;13.440;2023-03-14T05:18:30;0.77;;;0.60;;
13197;SDS011;6664;52.514;13.440;2023-03-14T05:21:16;0.70;;;0.70;;
13197;SDS011;6664;52.514;13.440;2023-03-14T05:24:02;1.07;;;0.80;;
13197;SDS011;6664;52.514;13.440;2023-03-14T05:26:51;2.10;;;0.83;;
13197;SDS011;6664;52.514;13.440;2023-03-14T05:29:36;0.80;;;0.80;;
13197;SDS011;6664;52.514;13.440;2023-03-14T05:32:24;0.80;;;0.80;;
13197;SDS011;6664;52.514;13.440;2023-03-14T05:35:09;1.30;;;0.60;;
13197;SDS011;6664;52.514;13.440;2023-03-14T05:37:55;0.80;;;0.80;;
13197;SDS011;6664;52.514;13.440;2023-03-14T05:40:40;2.70;;;1.10;;
13197;SDS011;6664;52.514;13.440;2023-03-14T05:43:26;0.97;;;0.73;;
13197;SDS011;6664;52.514;13.440;2023-03-14T05:46:13;1.00;;;0.90;;
13197;SDS011;6664;52.514;13.440;2023-03-14T05:48:59;1.37;;;0.93;;
13197;SDS011;6664;52.514;13.440;2023-03-14T05:51:45;1.60;;;1.00;;
13197;SDS011;6664;52.514;13.440;2023-03-14T05:54:48;1.63;;;0.97;;
13197;SDS011;6664;52.514;13.440;2023-03-14T05:57:35;0.93;;;0.80;;
13197;SDS011;6664;52.514;13.440;2023-03-14T06:00:21;5.53;;;1.03;;
13197;SDS011;6664;52.514;13.440;2023-03-14T06:03:09;5.03;;;1.27;;
13197;SDS011;6664;52.514;13.440;2023-03-14T06:05:54;0.93;;;0.80;;
13197;SDS011;6664;52.514;13.440;2023-03-14T06:08:40;2.87;;;1.03;;
13197;SDS011;6664;52.514;13.440;2023-03-14T06:11:28;2.70;;;0.80;;
13197;SDS011;6664;52.514;13.440;2023-03-14T06:14:13;3.17;;;0.90;;
13197;SDS011;6664;52.514;13.440;2023-03-14T06:16:59;0.70;;;0.70;;
13197;SDS011;6664;52.514;13.440;2023-03-14T06:19:45;2.53;;;0.97;;
13197;SDS011;6664;52.514;13.440;2023-03-14T06:22:31;0.87;;;0.87;;
13197;SDS011;6664;52.514;13.440;2023-03-14T06:25:17;0.77;;;0.77;;
13197;SDS011;6664;52.514;13.440;2023-03-14T06:28:02;1.00;;;0.90;;
13197;SDS011;6664;52.514;13.440;2023-03-14T06:30:50;1.20;;;1.07;;
13197;SDS011;6664;52.514;13.440;2023-03-14T06:33:38;1.00;;;1.00;;
13197;SDS011;6664;52.514;13.440;2023-03-14T06:36:24;0.80;;;0.63;;
13197;SDS011;6664;52.514;13.440;2023-03-14T06:39:09;3.37;;;1.00;;
13197;SDS011;6664;52.514;13.440;2023-03-14T06:41:55;5.97;;;0.87;;
13197;SDS011;6664;52.514;13.440;2023-03-14T06:44:40;1.50;;;1.10;;
13197;SDS011;6664;52.514;13.440;2023-03-14T06:47:25;0.83;;;0.83;;
13197;SDS011;6664;52.514;13.440;2023-03-14T06:50:12;2.00;;;0.90;;
13197;SDS011;6664;52.514;13.440;2023-03-14T06:52:59;13.57;;;1.30;;
13197;SDS011;6664;52.514;13.440;2023-03-14T06:55:48;1.40;;;0.70;;
13197;SDS011;6664;52.514;13.440;2023-03-14T06:58:37;0.80;;;0.67;;
13197;SDS011;6664;52.514;13.440;2023-03-14T07:01:23;0.90;;;0.90;;
13197;SDS011;6664;52.514;13.440;2023-03-14T07:04:11;2.33;;;0.90;;
13197;SDS011;6664;52.514;13.440;2023-03-14T07:06:56;2.03;;;1.07;;
13197;SDS011;6664;52.514;13.440;2023-03-14T07:09:42;2.60;;;1.00;;
13197;SDS011;6664;52.514;13.440;2023-03-14T07:12:27;1.70;;;0.83;;
13197;SDS011;6664;52.514;13.440;2023-03-14T07:15:13;2.50;;;0.80;;
13197;SDS011;6664;52.514;13.440;2023-03-14T07:18:05;1.83;;;0.93;;
13197;SDS011;6664;52.514;13.440;2023-03-14T07:20:53;5.00;;;0.83;;
13197;SDS011;6664;52.514;13.440;2023-03-14T07:23:39;1.43;;;0.90;;
13197;SDS011;6664;52.514;13.440;2023-03-14T07:26:25;1.80;;;0.90;;
13197;SDS011;6664;52.514;13.440;2023-03-14T07:29:11;1.93;;;1.40;;
13197;SDS011;6664;52.514;13.440;2023-03-14T07:31:57;1.07;;;0.97;;
13197;SDS011;6664;52.514;13.440;2023-03-14T07:34:42;3.17;;;1.20;;
13197;SDS011;6664;52.514;13.440;2023-03-14T07:37:28;1.73;;;1.27;;
13197;SDS011;6664;52.514;13.440;2023-03-14T07:40:16;1.13;;;1.00;;
13197;SDS011;6664;52.514;13.440;2023-03-14T07:43:02;1.97;;;1.10;;
13197;SDS011;6664;52.514;13.440;2023-03-14T07:45:50;3.83;;;0.90;;
13197;SDS011;6664;52.514;13.440;2023-03-14T07:48:48;2.10;;;1.10;;
13197;SDS011;6664;52.514;13.440;2023-03-14T07:51:34;3.43;;;1.10;;
13197;SDS011;6664;52.514;13.440;2023-03-14T07:54:22;1.50;;;0.93;;
13197;SDS011;6664;52.514;13.440;2023-03-14T07:57:09;3.33;;;1.17;;
13197;SDS011;6664;52.514;13.440;2023-03-14T07:59:55;2.50;;;1.00;;
13197;SDS011;6664;52.514;13.440;2023-03-14T08:02:40;1.53;;;0.80;;
13197;SDS011;6664;52.514;13.440;2023-03-14T08:05:28;1.73;;;1.03;;
13197;SDS011;6664;52.514;13.440;2023-03-14T08:08:13;3.60;;;1.90;;
13197;SDS011;6664;52.514;13.440;2023-03-14T08:11:07;3.10;;;0.93;;
13197;SDS011;6664;52.514;13.440;2023-03-14T08:13:55;4.90;;;1.33;;
13197;SDS011;6664;52.514;13.440;2023-03-14T08:16:41;2.53;;;0.93;;
13197;SDS011;6664;52.514;13.440;2023-03-14T08:19:28;1.60;;;0.90;;
13197;SDS011;6664;52.514;13.440;2023-03-14T08:22:14;1.80;;;1.30;;
13197;SDS011;6664;52.514;13.440;2023-03-14T08:25:06;0.90;;;0.80;;
13197;SDS011;6664;52.514;13.440;2023-03-14T08:27:52;1.10;;;0.80;;
13197;SDS011;6664;52.514;13.440;2023-03-14T08:30:38;1.43;;;1.00;;
13197;SDS011;6664;52.514;13.440;2023-03-14T08:33:30;2.37;;;1.20;;
13197;SDS011;6664;52.514;13.440;2023-03-14T08:36:15;3.87;;;1.47;;
13197;SDS011;6664;52.514;13.440;2023-03-14T08:39:07;2.43;;;1.00;;
13197;SDS011;6664;52.514;13.440;2023-03-14T08:41:55;1.23;;;0.70;;
13197;SDS011;6664;52.514;13.440;2023-03-14T08:44:41;3.50;;;1.03;;
13197;SDS011;6664;52.514;13.440;2023-03-14T08:47:26;0.80;;;0.80;;
13197;SDS011;6664;52.514;13.440;2023-03-14T08:50:12;2.33;;;1.03;;
13197;SDS011;6664;52.514;13.440;2023-03-14T08:53:00;1.53;;;0.97;;
13197;SDS011;6664;52.514;13.440;2023-03-14T08:55:47;2.10;;;0.90;;
13197;SDS011;6664;52.514;13.440;2023-03-14T08:58:37;2.07;;;1.00;;
13197;SDS011;6664;52.514;13.440;2023-03-14T09:01:22;1.00;;;0.87;;
13197;SDS011;6664;52.514;13.440;2023-03-14T09:04:10;4.00;;;1.10;;
13197;SDS011;6664;52.514;13.440;2023-03-14T09:06:56;3.00;;;1.03;;
13197;SDS011;6664;52.514;13.440;2023-03-14T09:09:43;1.73;;;0.90;;
13197;SDS011;6664;52.514;13.440;2023-03-14T09:12:28;1.93;;;1.00;;
13197;SDS011;6664;52.514;13.440;2023-03-14T09:15:15;3.40;;;1.30;;
13197;SDS011;6664;52.514;13.440;2023-03-14T09:18:01;4.10;;;1.33;;
13197;SDS011;6664;52.514;13.440;2023-03-14T09:20:46;1.67;;;0.90;;
13197;SDS011;6664;52.514;13.440;2023-03-14T09:23:32;0.90;;;0.80;;
13197;SDS011;6664;52.514;13.440;2023-03-14T09:26:17;1.33;;;1.03;;
13197;SDS011;6664;52.514;13.440;2023-03-14T09:29:02;4.63;;;1.30;;
13197;SDS011;6664;52.514;13.440;2023-03-14T09:31:48;2.40;;;1.07;;
13197;SDS011;6664;52.514;13.440;2023-03-14T09:34:36;3.50;;;1.20;;
13197;SDS011;6664;52.514;13.440;2023-03-14T09:37:23;4.27;;;0.90;;
13197;SDS011;6664;52.514;13.440;2023-03-14T09:40:18;3.90;;;1.33;;
13197;SDS011;6664;52.514;13.440;2023-03-14T09:43:13;2.10;;;1.07;;
13197;SDS011;6664;52.514;13.440;2023-03-14T09:46:02;0.70;;;0.70;;
13197;SDS011;6664;52.514;13.440;2023-03-14T09:48:48;2.10;;;0.80;;
13197;SDS011;6664;52.514;13.440;2023-03-14T09:51:34;2.03;;;0.97;;
13197;SDS011;6664;52.514;13.440;2023-03-14T09:54:29;1.83;;;1.00;;
13197;SDS011;6664;52.514;13.440;2023-03-14T09:57:19;10.60;;;1.10;;
13197;SDS011;6664;52.514;13.440;2023-03-14T10:00:16;0.73;;;0.60;;
13197;SDS011;6664;52.514;13.440;2023-03-14T10:06:00;1.00;;;0.90;;
13197;SDS011;6664;52.514;13.440;2023-03-14T10:08:49;2.77;;;1.00;;
13197;SDS011;6664;52.514;13.440;2023-03-14T10:11:39;1.00;;;0.90;;
13197;SDS011;6664;52.514;13.440;2023-03-14T10:14:34;1.17;;;1.03;;
13197;SDS011;6664;52.514;13.440;2023-03-14T10:17:24;2.73;;;0.90;;
13197;SDS011;6664;52.514;13.440;2023-03-14T10:20:35;1.67;;;0.83;;
13197;SDS011;6664;52.514;13.440;2023-03-14T10:23:26;2.23;;;1.13;;
13197;SDS011;6664;52.514;13.440;2023-03-14T10:26:15;2.53;;;0.97;;
13197;SDS011;6664;52.514;13.440;2023-03-14T10:29:08;3.50;;;0.87;;
13197;SDS011;6664;52.514;13.440;2023-03-14T10:38:10;1.60;;;0.90;;
13197;SDS011;6664;52.514;13.440;2023-03-14T10:41:01;3.53;;;1.00;;
13197;SDS011;6664;52.514;13.440;2023-03-14T10:43:59;1.50;;;0.87;;
13197;SDS011;6664;52.514;13.440;2023-03-14T10:46:47;2.27;;;1.00;;
13197;SDS011;6664;52.514;13.440;2023-03-14T10:49:45;1.03;;;0.80;;
13197;SDS011;6664;52.514;13.440;2023-03-14T10:52:33;6.83;;;0.90;;
13197;SDS011;6664;52.514;13.440;2023-03-14T10:55:43;0.60;;;0.60;;
13197;SDS011;6664;52.514;13.440;2023-03-14T10:58:31;3.20;;;1.03;;
13197;SDS011;6664;52.514;13.440;2023-03-14T11:07:39;1.90;;;1.20;;
13197;SDS011;6664;52.514;13.440;2023-03-14T11:10:31;0.93;;;0.83;;
13197;SDS011;6664;52.514;13.440;2023-03-14T11:13:43;1.20;;;0.77;;
13197;SDS011;6664;52.514;13.440;2023-03-14T11:25:18;5.10;;;0.83;;
13197;SDS011;6664;52.514;13.440;2023-03-14T11:28:34;2.30;;;1.00;;
13197;SDS011;6664;52.514;13.440;2023-03-14T11:31:24;3.23;;;0.80;;
13197;SDS011;6664;52.514;13.440;2023-03-14T11:34:28;0.83;;;0.83;;
13197;SDS011;6664;52.514;13.440;2023-03-14T11:37:26;1.97;;;1.17;;
13197;SDS011;6664;52.514;13.440;2023-03-14T11:40:25;1.63;;;1.00;;
13197;SDS011;6664;52.514;13.440;2023-03-14T11:43:15;0.87;;;0.87;;
13197;SDS011;6664;52.514;13.440;2023-03-14T11:46:27;2.70;;;0.87;;
13197;SDS011;6664;52.514;13.440;2023-03-14T11:58:09;0.60;;;0.60;;
13197;SDS011;6664;52.514;13.440;2023-03-14T12:00:57;2.00;;;0.90;;
13197;SDS011;6664;52.514;13.440;2023-03-14T12:03:57;2.03;;;1.20;;
13197;SDS011;6664;52.514;13.440;2023-03-14T12:07:08;1.20;;;0.90;;
13197;SDS011;6664;52.514;13.440;2023-03-14T12:10:09;1.20;;;1.10;;
13197;SDS011;6664;52.514;13.440;2023-03-14T12:12:57;0.70;;;0.70;;
13197;SDS011;6664;52.514;13.440;2023-03-14T12:15:48;2.40;;;0.80;;
13197;SDS011;6664;52.514;13.440;2023-03-14T12:18:47;0.70;;;0.70;;
13197;SDS011;6664;52.514;13.440;2023-03-14T12:24:38;1.20;;;0.90;;
13197;SDS011;6664;52.514;13.440;2023-03-14T12:30:41;2.03;;;1.00;;
13197;SDS011;6664;52.514;13.440;2023-03-14T12:33:31;0.97;;;0.83;;
13197;SDS011;6664;52.514;13.440;2023-03-14T12:36:21;2.60;;;1.00;;
13197;SDS011;6664;52.514;13.440;2023-03-14T12:45:43;3.53;;;1.40;;
13197;SDS011;6664;52.514;13.440;2023-03-14T12:51:46;1.00;;;0.80;;
13197;SDS011;6664;52.514;13.440;2023-03-14T13:00:34;1.23;;;0.70;;
13197;SDS011;6664;52.514;13.440;2023-03-14T13:03:27;1.63;;;1.10;;
13197;SDS011;6664;52.514;13.440;2023-03-14T13:12:57;1.60;;;0.80;;
13197;SDS011;6664;52.514;13.440;2023-03-14T13:16:05;0.80;;;0.80;;
13197;SDS011;6664;52.514;13.440;2023-03-14T13:18:59;0.80;;;0.60;;
13197;SDS011;6664;52.514;13.440;2023-03-14T13:21:51;2.43;;;0.80;;
13197;SDS011;6664;52.514;13.440;2023-03-14T13:24:41;0.80;;;0.80;;
13197;SDS011;6664;52.514;13.440;2023-03-14T13:27:30;0.80;;;0.80;;
13197;SDS011;6664;52.514;13.440;2023-03-14T13:33:14;1.00;;;0.80;;
13197;SDS011;6664;52.514;13.440;2023-03-14T13:36:03;1.70;;;0.83;;
13197;SDS011;6664;52.514;13.440;2023-03-14T13:38:55;2.10;;;0.97;;
13197;SDS011;6664;52.514;13.440;2023-03-14T13:41:42;0.93;;;0.80;;
13197;SDS011;6664;52.514;13.440;2023-03-14T13:47:20;1.93;;;1.30;;
13197;SDS011;6664;52.514;13.440;2023-03-14T13:50:16;1.17;;;1.00;;
13197;SDS011;6664;52.514;13.440;2023-03-14T13:53:03;5.03;;;1.17;;
13197;SDS011;6664;52.514;13.440;2023-03-14T13:55:49;0.80;;;0.80;;
13197;SDS011;6664;52.514;13.440;2023-03-14T13:58:35;0.73;;;0.73;;
13197;SDS011;6664;52.514;13.440;2023-03-14T14:01:29;5.03;;;1.10;;
13197;SDS011;6664;52.514;13.440;2023-03-14T14:04:21;1.15;;;1.02;;
13197;SDS011;6664;52.514;13.440;2023-03-14T14:07:09;3.80;;;0.75;;
13197;SDS011;6664;52.514;13.440;2023-03-14T14:09:58;0.88;;;0.80;;
13197;SDS011;6664;52.514;13.440;2023-03-14T14:12:50;1.02;;;0.95;;
13197;SDS011;6664;52.514;13.440;2023-03-14T14:15:44;0.98;;;0.70;;
13197;SDS011;6664;52.514;13.440;2023-03-14T14:18:36;1.00;;;0.80;;
13197;SDS011;6664;52.514;13.440;2023-03-14T14:21:22;0.70;;;0.70;;
13197;SDS011;6664;52.514;13.440;2023-03-14T14:24:12;1.10;;;1.10;;
13197;SDS011;6664;52.514;13.440;2023-03-14T14:27:00;1.37;;;1.00;;
13197;SDS011;6664;52.514;13.440;2023-03-14T14:30:05;1.33;;;1.10;;
13197;SDS011;6664;52.514;13.440;2023-03-14T14:33:23;0.70;;;0.70;;
13197;SDS011;6664;52.514;13.440;2023-03-14T14:36:19;1.80;;;0.83;;
13197;SDS011;6664;52.514;13.440;2023-03-14T14:39:20;0.60;;;0.60;;
13197;SDS011;6664;52.514;13.440;2023-03-14T14:42:12;1.60;;;0.83;;
13197;SDS011;6664;52.514;13.440;2023-03-14T14:45:02;0.90;;;0.80;;
13197;SDS011;6664;52.514;13.440;2023-03-14T14:47:51;1.10;;;0.80;;
13197;SDS011;6664;52.514;13.440;2023-03-14T14:50:44;0.83;;;0.80;;
13197;SDS011;6664;52.514;13.440;2023-03-14T14:53:36;0.80;;;0.70;;
13197;SDS011;6664;52.514;13.440;2023-03-14T14:56:26;1.17;;;0.80;;
13197;SDS011;6664;52.514;13.440;2023-03-14T14:59:23;1.23;;;0.80;;
13197;SDS011;6664;52.514;13.440;2023-03-14T15:02:27;1.23;;;0.77;;
13197;SDS011;6664;52.514;13.440;2023-03-14T15:05:22;1.27;;;0.70;;
13197;SDS011;6664;52.514;13.440;2023-03-14T15:08:09;0.67;;;0.67;;
13197;SDS011;6664;52.514;13.440;2023-03-14T15:10:56;1.57;;;0.70;;
13197;SDS011;6664;52.514;13.440;2023-03-14T15:13:42;0.80;;;0.80;;
13197;SDS011;6664;52.514;13.440;2023-03-14T15:16:29;0.90;;;0.87;;
13197;SDS011;6664;52.514;13.440;2023-03-14T15:19:23;1.37;;;0.83;;
13197;SDS011;6664;52.514;13.440;2023-03-14T15:22:17;0.70;;;0.70;;
13197;SDS011;6664;52.514;13.440;2023-03-14T15:25:03;0.60;;;0.60;;
13197;SDS011;6664;52.514;13.440;2023-03-14T15:27:49;1.67;;;0.60;;
13197;SDS011;6664;52.514;13.440;2023-03-14T15:30:37;5.83;;;0.87;;
13197;SDS011;6664;52.514;13.440;2023-03-14T15:33:23;0.67;;;0.67;;
13197;SDS011;6664;52.514;13.440;2023-03-14T15:36:17;0.73;;;0.73;;
13197;SDS011;6664;52.514;13.440;2023-03-14T15:39:09;0.60;;;0.60;;
13197;SDS011;6664;52.514;13.440;2023-03-14T15:41:55;0.50;;;0.50;;
13197;SDS011;6664;52.514;13.440;2023-03-14T15:44:41;0.60;;;0.60;;
13197;SDS011;6664;52.514;13.440;2023-03-14T15:47:26;2.30;;;0.70;;
13197;SDS011;6664;52.514;13.440;2023-03-14T15:50:16;0.60;;;0.60;;
13197;SDS011;6664;52.514;13.440;2023-03-14T15:53:04;0.60;;;0.60;;
13197;SDS011;6664;52.514;13.440;2023-03-14T15:55:51;1.40;;;0.70;;
13197;SDS011;6664;52.514;13.440;2023-03-14T15:58:37;0.90;;;0.73;;
13197;SDS011;6664;52.514;13.440;2023-03-14T16:01:25;1.90;;;0.60;;
13197;SDS011;6664;52.514;13.440;2023-03-14T16:04:11;0.80;;;0.80;;
13197;SDS011;6664;52.514;13.440;2023-03-14T16:06:57;0.70;;;0.70;;
13197;SDS011;6664;52.514;13.440;2023-03-14T16:09:47;0.60;;;0.60;;
13197;SDS011;6664;52.514;13.440;2023-03-14T16:12:36;1.13;;;0.97;;
13197;SDS011;6664;52.514;13.440;2023-03-14T16:15:21;0.60;;;0.60;;
13197;SDS011;6664;52.514;13.440;2023-03-14T16:18:07;1.47;;;0.70;;
13197;SDS011;6664;52.514;13.440;2023-03-14T16:21:07;0.83;;;0.83;;
13197;SDS011;6664;52.514;13.440;2023-03-14T16:23:56;0.60;;;0.60;;
13197;SDS011;6664;52.514;13.440;2023-03-14T16:26:41;2.27;;;0.87;;
13197;SDS011;6664;52.514;13.440;2023-03-14T16:29:29;3.97;;;0.80;;
13197;SDS011;6664;52.514;13.440;2023-03-14T16:32:17;0.70;;;0.70;;
13197;SDS011;6664;52.514;13.440;2023-03-14T16:35:05;0.70;;;0.70;;
13197;SDS011;6664;52.514;13.440;2023-03-14T16:37:53;0.70;;;0.70;;
13197;SDS011;6664;52.514;13.440;2023-03-14T16:40:38;1.33;;;0.60;;
13197;SDS011;6664;52.514;13.440;2023-03-14T16:43:24;1.30;;;0.60;;
13197;SDS011;6664;52.514;13.440;2023-03-14T16:46:11;0.60;;;0.60;;
13197;SDS011;6664;52.514;13.440;2023-03-14T16:49:03;1.63;;;0.60;;
13197;SDS011;6664;52.514;13.440;2023-03-14T16:51:49;1.17;;;0.70;;
13197;SDS011;6664;52.514;13.440;2023-03-14T16:54:37;0.60;;;0.60;;
13197;SDS011;6664;52.514;13.440;2023-03-14T16:57:23;0.87;;;0.87;;
13197;SDS011;6664;52.514;13.440;2023-03-14T17:00:09;0.60;;;0.60;;
13197;SDS011;6664;52.514;13.440;2023-03-14T17:03:00;1.00;;;0.80;;
13197;SDS011;6664;52.514;13.440;2023-03-14T17:05:46;0.80;;;0.80;;
13197;SDS011;6664;52.514;13.440;2023-03-14T17:08:32;1.07;;;0.93;;
13197;SDS011;6664;52.514;13.440;2023-03-14T17:11:19;1.40;;;0.80;;
13197;SDS011;6664;52.514;13.440;2023-03-14T17:14:04;1.10;;;1.10;;
13197;SDS011;6664;52.514;13.440;2023-03-14T17:16:50;1.73;;;1.10;;
13197;SDS011;6664;52.514;13.440;2023-03-14T17:19:38;3.57;;;1.40;;
13197;SDS011;6664;52.514;13.440;2023-03-14T17:22:24;1.33;;;1.10;;
13197;SDS011;6664;52.514;13.440;2023-03-14T17:25:16;1.20;;;1.10;;
13197;SDS011;6664;52.514;13.440;2023-03-14T17:28:04;1.17;;;1.07;;
13197;SDS011;6664;52.514;13.440;2023-03-14T17:30:50;4.77;;;1.40;;
13197;SDS011;6664;52.514;13.440;2023-03-14T17:34:12;1.40;;;1.30;;
13197;SDS011;6664;52.514;13.440;2023-03-14T17:36:57;1.73;;;1.20;;
13197;SDS011;6664;52.514;13.440;2023-03-14T17:39:43;1.77;;;1.67;;
13197;SDS011;6664;52.514;13.440;2023-03-14T17:42:28;5.33;;;3.00;;
13197;SDS011;6664;52.514;13.440;2023-03-14T17:45:15;4.53;;;2.67;;
13197;SDS011;6664;52.514;13.440;2023-03-14T17:48:03;3.00;;;2.80;;
13197;SDS011;6664;52.514;13.440;2023-03-14T17:50:49;2.73;;;2.50;;
13197;SDS011;6664;52.514;13.440;2023-03-14T17:53:37;6.23;;;2.40;;
13197;SDS011;6664;52.514;13.440;2023-03-14T17:56:25;3.30;;;2.37;;
13197;SDS011;6664;52.514;13.440;2023-03-14T17:59:11;6.00;;;2.40;;
13197;SDS011;6664;52.514;13.440;2023-03-14T18:01:57;11.90;;;2.87;;
13197;SDS011;6664;52.514;13.440;2023-03-14T18:04:45;7.57;;;2.10;;
13197;SDS011;6664;52.514;13.440;2023-03-14T18:07:36;2.00;;;1.80;;
13197;SDS011;6664;52.514;13.440;2023-03-14T18:10:22;3.00;;;1.80;;